Time;durP1;ratioP1;P1;durP2;ratioP2;P2;SDS_P1;SDS_P2;PMS_P1;PMS_P2;Temp;Humidity;BMP_temperature;BMP_pressure;BME280_temperature;BME280_humidity;BME280_pressure;Samples;Min_cycle;Max_cycle;Signal;HPM_P1;HPM_P2
2021/10/17 00:00:25;;;;;;;21.80;11.30;;;;;;;4.60;87.81;93472.77;1742515;77;21600;-84
2021/10/17 00:02:51;;;;;;;19.52;11.65;;;;;;;4.58;87.90;93462.90;1757500;80;21174;-86
2021/10/17 00:05:20;;;;;;;20.68;11.65;;;;;;;4.65;87.90;93467.65;1837182;77;21136;-84
2021/10/17 00:07:46;;;;;;;21.93;11.45;;;;;;;4.66;87.82;93467.28;1826298;76;21068;-85
2021/10/17 00:10:16;;;;;;;22.27;11.80;;;;;;;4.66;87.83;93461.89;1835330;75;21164;-85
2021/10/17 00:12:42;;;;;;;20.95;13.03;;;;;;;4.65;87.53;93458.22;1810942;77;21075;-84
2021/10/17 00:15:12;;;;;;;25.27;12.60;;;;;;;4.65;87.54;93463.04;1813884;77;22137;-84
2021/10/17 00:17:41;;;;;;;22.32;13.18;;;;;;;4.65;87.64;93464.95;1816718;77;22031;-84
2021/10/17 00:20:09;;;;;;;21.35;13.32;;;;;;;4.65;87.70;93459.57;1821290;76;21057;-84
2021/10/17 00:22:37;;;;;;;22.45;13.13;;;;;;;4.66;87.84;93461.12;1808127;76;21085;-84
2021/10/17 00:25:05;;;;;;;23.07;13.98;;;;;;;4.66;87.84;93458.42;1778667;78;21054;-83
2021/10/17 00:27:31;;;;;;;24.55;14.05;;;;;;;4.61;87.98;93458.16;1824876;75;22397;-85
2021/10/17 00:29:58;;;;;;;34.33;19.73;;;;;;;4.56;88.32;93455.19;1815551;76;21003;-84
2021/10/17 00:32:24;;;;;;;27.80;15.30;;;;;;;4.54;88.51;93458.79;1822114;77;21152;-83
2021/10/17 00:34:51;;;;;;;26.80;13.98;;;;;;;4.50;88.61;93453.91;1824501;77;21008;-84
2021/10/17 00:37:18;;;;;;;21.60;12.78;;;;;;;4.47;88.86;93456.53;1815285;77;20976;-84
2021/10/17 00:39:46;;;;;;;26.40;13.05;;;;;;;4.47;89.18;93452.49;1831759;76;21911;-84
2021/10/17 00:42:12;;;;;;;23.25;13.80;;;;;;;4.47;89.41;93451.92;1802389;75;21057;-84
2021/10/17 00:44:41;;;;;;;20.75;13.38;;;;;;;4.52;89.44;93450.88;1795140;77;21613;-84
2021/10/17 00:47:07;;;;;;;24.02;14.03;;;;;;;4.53;89.45;93443.77;1819978;75;21129;-83
2021/10/17 00:49:34;;;;;;;27.00;14.23;;;;;;;4.51;89.46;93446.61;1765667;78;21683;-84
2021/10/17 00:52:00;;;;;;;23.55;13.90;;;;;;;4.47;89.50;93448.45;1762724;78;21837;-84
2021/10/17 00:54:27;;;;;;;27.42;14.15;;;;;;;4.43;89.65;93444.91;1763344;77;21389;-85
2021/10/17 00:56:53;;;;;;;26.25;13.85;;;;;;;4.40;89.97;93443.73;1840349;75;20966;-84
2021/10/17 00:59:19;;;;;;;24.45;13.28;;;;;;;4.41;90.15;93438.55;1833577;75;21092;-84
2021/10/17 01:01:46;;;;;;;19.50;11.70;;;;;;;4.44;90.31;93441.08;1808253;75;21260;-84
2021/10/17 01:04:12;;;;;;;17.77;10.65;;;;;;;4.44;90.21;93441.88;1838028;76;21110;-83
2021/10/17 01:06:40;;;;;;;17.02;10.32;;;;;;;4.39;90.33;93436.20;1777912;76;21010;-83
2021/10/17 01:09:06;;;;;;;18.40;11.30;;;;;;;4.30;90.48;93433.52;1778676;77;21093;-84
2021/10/17 01:11:44;;;;;;;21.40;10.13;;;;;;;4.18;90.80;93430.41;1804032;77;21006;-83
2021/10/17 01:14:20;;;;;;;17.15;10.28;;;;;;;4.10;91.20;93430.83;1817928;76;20979;-83
2021/10/17 01:16:48;;;;;;;18.67;10.63;;;;;;;4.06;91.55;93439.94;1843373;75;21078;-83
2021/10/17 01:19:15;;;;;;;18.85;10.40;;;;;;;4.05;91.77;93438.39;1800537;77;20988;-83
2021/10/17 01:21:43;;;;;;;21.48;10.90;;;;;;;4.02;91.90;93433.14;1836738;75;21108;-83
2021/10/17 01:24:09;;;;;;;22.70;12.18;;;;;;;4.02;92.14;93435.83;1799631;76;21110;-84
2021/10/17 01:26:36;;;;;;;21.05;11.63;;;;;;;4.05;92.29;93435.12;1798505;77;21437;-84
2021/10/17 01:29:03;;;;;;;18.52;11.73;;;;;;;4.06;92.07;93431.33;1798077;77;21833;-84
2021/10/17 01:34:07;;;;;;;20.80;12.10;;;;;;;4.09;91.58;93430.59;1771615;78;21038;-84
2021/10/17 01:36:35;;;;;;;23.83;12.58;;;;;;;4.05;91.38;93425.71;1830567;75;21065;-85
2021/10/17 01:39:04;;;;;;;22.13;11.50;;;;;;;3.99;91.09;93425.80;1835556;75;21018;-84
2021/10/17 01:41:31;;;;;;;18.40;10.18;;;;;;;3.90;90.89;93422.52;1825668;75;21136;-84
2021/10/17 01:44:04;;;;;;;20.52;11.03;;;;;;;3.82;90.84;93424.28;1812146;77;21117;-85
2021/10/17 01:46:33;;;;;;;23.85;12.15;;;;;;;3.75;90.85;93428.16;1793225;77;21025;-84
2021/10/17 01:48:59;;;;;;;17.98;10.82;;;;;;;3.70;91.05;93428.44;1801429;77;21652;-83
2021/10/17 01:51:26;;;;;;;18.02;10.75;;;;;;;3.66;91.20;93423.55;1774241;78;21042;-84
2021/10/17 01:53:52;;;;;;;17.98;10.90;;;;;;;3.64;91.15;93431.17;1768317;78;21129;-83
2021/10/17 01:56:19;;;;;;;20.95;9.73;;;;;;;3.64;91.23;93429.27;1804512;77;21070;-84
2021/10/17 01:58:46;;;;;;;22.10;12.10;;;;;;;3.64;91.16;93421.77;1741629;80;21713;-83
2021/10/17 02:01:12;;;;;;;22.67;12.80;;;;;;;3.60;91.39;93416.30;1822237;75;21145;-84
2021/10/17 02:03:40;;;;;;;25.57;13.28;;;;;;;3.65;91.69;93420.09;1777011;77;21021;-84
2021/10/17 02:06:06;;;;;;;20.70;12.33;;;;;;;3.70;91.64;93427.66;1807335;77;21529;-83
2021/10/17 02:08:33;;;;;;;21.07;12.60;;;;;;;3.73;91.39;93428.31;1816979;77;21070;-83
2021/10/17 02:11:00;;;;;;;21.97;10.85;;;;;;;3.76;91.12;93426.23;1806774;77;21081;-84
2021/10/17 02:13:27;;;;;;;18.17;10.20;;;;;;;3.71;90.36;93417.11;1803880;77;21114;-83
2021/10/17 02:15:53;;;;;;;19.17;10.32;;;;;;;3.71;90.36;93417.11;1803285;77;21113;-84
2021/10/17 02:18:22;;;;;;;20.30;10.30;;;;;;;3.64;90.06;93412.35;1810588;77;21215;-85
2021/10/17 02:20:49;;;;;;;19.00;9.75;;;;;;;3.64;90.06;93412.35;1809887;77;21029;-84
2021/10/17 02:23:16;;;;;;;18.92;11.28;;;;;;;3.64;90.11;93423.89;1790774;77;21599;-84
2021/10/17 02:25:43;;;;;;;15.13;7.85;;;;;;;3.65;90.18;93413.94;1775320;78;21061;-85
2021/10/17 02:28:09;;;;;;;21.60;12.37;;;;;;;3.64;90.11;93406.97;1815412;76;21100;-84
2021/10/17 02:30:38;;;;;;;32.98;21.12;;;;;;;3.62;89.87;93411.94;1820281;77;21633;-86
2021/10/17 02:33:06;;;;;;;26.40;15.98;;;;;;;3.52;90.00;93411.91;1828338;75;21074;-84
2021/10/17 02:35:32;;;;;;;22.77;12.43;;;;;;;3.52;90.00;93411.91;1820608;77;21042;-84
2021/10/17 02:37:59;;;;;;;20.45;10.25;;;;;;;3.47;90.17;93408.16;1798973;77;20967;-84
2021/10/17 02:40:28;;;;;;;15.35;9.35;;;;;;;3.47;90.17;93408.16;1817428;77;21113;-85
2021/10/17 02:42:54;;;;;;;16.45;9.43;;;;;;;3.27;90.60;93405.98;1820950;77;21420;-85
2021/10/17 02:45:21;;;;;;;18.85;9.98;;;;;;;3.27;90.60;93405.98;1825913;77;21607;-84
2021/10/17 02:47:48;;;;;;;15.80;10.00;;;;;;;3.25;90.79;93412.27;1776486;76;21020;-84
2021/10/17 02:50:16;;;;;;;17.07;9.73;;;;;;;3.19;91.33;93410.95;1780700;79;21139;-84
2021/10/17 02:52:44;;;;;;;16.30;10.60;;;;;;;3.20;91.47;93407.16;1818993;77;21049;-84
2021/10/17 02:55:13;;;;;;;18.70;10.48;;;;;;;3.20;91.47;93407.16;1797813;77;21108;-84
2021/10/17 02:57:44;;;;;;;14.45;8.98;;;;;;;3.26;91.75;93411.69;1781161;78;20994;-84
2021/10/17 03:00:17;;;;;;;13.65;8.73;;;;;;;3.35;91.97;93414.99;1794984;78;21488;-84
2021/10/17 03:02:44;;;;;;;16.73;7.90;;;;;;;3.35;91.71;93416.33;1822966;76;21304;-85
2021/10/17 03:05:12;;;;;;;14.13;8.05;;;;;;;3.35;91.71;93416.33;1821467;77;21096;-85
2021/10/17 03:07:38;;;;;;;12.53;8.30;;;;;;;3.29;91.75;93421.75;1775644;79;21191;-84
2021/10/17 03:10:07;;;;;;;15.03;9.28;;;;;;;3.12;92.54;93420.19;1729983;80;21600;-85
2021/10/17 03:12:34;;;;;;;17.07;8.65;;;;;;;3.12;92.54;93420.19;1763869;79;21055;-84
2021/10/17 03:15:06;;;;;;;13.25;8.40;;;;;;;3.09;92.62;93421.69;1789151;78;21596;-84
2021/10/17 03:17:33;;;;;;;14.87;9.55;;;;;;;3.06;93.21;93419.69;1790651;77;21057;-84
2021/10/17 03:20:00;;;;;;;24.92;15.58;;;;;;;3.08;92.98;93417.98;1801073;76;21118;-84
2021/10/17 03:22:29;;;;;;;19.25;14.50;;;;;;;3.11;93.05;93419.41;1830983;75;21022;-85
2021/10/17 03:24:57;;;;;;;13.28;8.50;;;;;;;3.15;92.88;93419.50;1818781;75;21058;-85
2021/10/17 03:27:25;;;;;;;13.65;8.68;;;;;;;3.12;92.81;93421.00;1810872;77;21124;-85
2021/10/17 03:29:53;;;;;;;11.80;7.83;;;;;;;3.02;93.03;93422.85;1830276;76;21108;-84
2021/10/17 03:32:20;;;;;;;13.48;7.78;;;;;;;3.00;93.70;93425.66;1803614;76;21735;-85
2021/10/17 03:34:46;;;;;;;13.38;7.25;;;;;;;3.04;93.97;93424.61;1839985;75;21645;-86
2021/10/17 03:37:14;;;;;;;17.27;8.83;;;;;;;3.06;93.98;93422.38;1817838;77;21006;-85
2021/10/17 03:39:41;;;;;;;11.22;7.70;;;;;;;3.11;94.09;93424.78;1822213;77;21053;-86
2021/10/17 03:42:08;;;;;;;13.93;7.30;;;;;;;3.14;94.05;93430.81;1808933;75;21081;-86
2021/10/17 03:44:35;;;;;;;14.23;8.35;;;;;;;3.20;94.06;93431.88;1765302;78;21090;-86
2021/10/17 03:47:02;;;;;;;17.67;8.83;;;;;;;3.22;93.95;93425.61;1797537;77;21607;-85
2021/10/17 03:49:30;;;;;;;20.88;14.23;;;;;;;3.22;94.01;93428.30;1792954;77;21022;-85
2021/10/17 03:51:57;;;;;;;24.27;15.30;;;;;;;3.19;94.02;93427.08;1775094;78;21574;-84
2021/10/17 03:54:24;;;;;;;19.70;11.22;;;;;;;3.17;94.29;93429.34;1818672;77;21101;-85
2021/10/17 03:56:51;;;;;;;19.05;11.33;;;;;;;3.17;94.29;93429.34;1814060;77;21137;-85
2021/10/17 03:59:18;;;;;;;21.27;13.20;;;;;;;3.16;94.38;93429.14;1788194;78;21620;-86
2021/10/17 04:01:46;;;;;;;21.77;13.68;;;;;;;3.16;94.39;93430.48;1805670;77;21598;-85
2021/10/17 04:04:13;;;;;;;20.72;13.50;;;;;;;3.13;94.49;93431.95;1801022;76;21045;-86
2021/10/17 04:06:40;;;;;;;24.25;13.48;;;;;;;3.12;94.59;93427.71;1768124;78;21127;-84
2021/10/17 04:09:09;;;;;;;23.15;12.58;;;;;;;3.13;94.81;93427.92;1807924;76;21137;-85
2021/10/17 04:11:35;;;;;;;24.10;14.70;;;;;;;3.14;94.63;93423.32;1821852;75;21061;-85
2021/10/17 04:14:02;;;;;;;23.20;14.85;;;;;;;3.16;94.81;93433.17;1815214;77;21579;-85
2021/10/17 04:16:28;;;;;;;22.93;12.33;;;;;;;3.16;94.81;93433.17;1824592;76;21570;-85
2021/10/17 04:18:56;;;;;;;20.92;13.35;;;;;;;3.13;94.67;93431.17;1813456;76;21303;-85
2021/10/17 04:21:23;;;;;;;23.18;13.75;;;;;;;3.15;94.84;93435.05;1815525;76;21850;-84
2021/10/17 04:23:50;;;;;;;24.50;14.95;;;;;;;3.15;94.89;93439.65;1825151;76;21045;-85
2021/10/17 04:26:17;;;;;;;25.08;15.43;;;;;;;3.19;94.96;93439.73;1816205;77;21311;-85
2021/10/17 04:28:45;;;;;;;24.23;14.58;;;;;;;3.21;94.95;93439.62;1821515;77;21022;-85
2021/10/17 04:31:11;;;;;;;24.87;14.10;;;;;;;3.24;94.80;93438.92;1836314;75;21085;-85
2021/10/17 04:33:38;;;;;;;28.57;13.72;;;;;;;3.26;94.76;93443.94;1837979;76;21132;-86
2021/10/17 04:36:05;;;;;;;32.67;16.12;;;;;;;3.26;94.79;93450.09;1837832;76;21204;-85
2021/10/17 04:38:33;;;;;;;24.77;13.62;;;;;;;3.26;94.77;93446.63;1820290;77;21600;-85
2021/10/17 04:41:00;;;;;;;33.18;16.87;;;;;;;3.25;94.74;93449.11;1773975;76;21269;-85
2021/10/17 04:43:27;;;;;;;27.20;16.80;;;;;;;3.24;94.75;93448.90;1786566;77;21042;-85
2021/10/17 04:45:53;;;;;;;26.60;16.80;;;;;;;3.22;94.78;93454.60;1816183;77;21399;-85
2021/10/17 04:48:21;;;;;;;24.85;15.83;;;;;;;3.19;94.95;93453.95;1819612;76;21430;-85
2021/10/17 04:50:50;;;;;;;23.90;16.67;;;;;;;3.19;94.92;93453.17;1823276;77;21076;-85
2021/10/17 04:53:16;;;;;;;25.30;15.53;;;;;;;3.15;95.07;93453.86;1820366;76;21034;-86
2021/10/17 04:55:44;;;;;;;26.27;15.83;;;;;;;3.15;95.07;93453.86;1814511;77;21050;-86
2021/10/17 04:58:12;;;;;;;26.15;15.55;;;;;;;3.18;95.19;93451.63;1801363;77;21560;-87
2021/10/17 05:00:39;;;;;;;27.32;16.90;;;;;;;3.19;95.22;93453.17;1837383;75;21037;-86
2021/10/17 05:03:05;;;;;;;28.00;18.23;;;;;;;3.20;95.31;93453.38;1824289;77;21078;-86
2021/10/17 05:05:34;;;;;;;26.00;15.65;;;;;;;3.22;95.52;93461.89;1814511;76;21594;-83
2021/10/17 05:08:01;;;;;;;28.85;17.62;;;;;;;3.30;95.52;93470.34;1745543;76;21123;-86
2021/10/17 05:10:34;;;;;;;24.90;15.50;;;;;;;3.30;95.52;93470.34;1763947;78;21158;-84
2021/10/17 05:13:00;;;;;;;28.92;17.12;;;;;;;3.32;95.42;93462.72;1692469;80;21073;-85
2021/10/17 05:15:27;;;;;;;24.37;14.55;;;;;;;3.35;95.04;93468.75;1757840;77;21018;-85
2021/10/17 05:17:53;;;;;;;20.48;13.80;;;;;;;3.43;94.99;93471.81;1801384;76;21679;-86
2021/10/17 05:20:21;;;;;;;21.20;13.43;;;;;;;3.49;94.54;93471.75;1760041;76;21172;-85
2021/10/17 05:22:47;;;;;;;28.95;17.00;;;;;;;3.49;94.54;93471.75;1827046;76;22135;-84
2021/10/17 05:25:13;;;;;;;26.70;14.83;;;;;;;3.54;94.63;93474.76;1825624;75;21535;-85
2021/10/17 05:27:41;;;;;;;30.68;16.65;;;;;;;3.59;94.38;93481.98;1801612;77;21123;-86
2021/10/17 05:30:09;;;;;;;23.67;15.65;;;;;;;3.58;94.20;93478.30;1798630;76;21097;-84
2021/10/17 05:32:36;;;;;;;27.95;16.20;;;;;;;3.58;94.20;93478.30;1833016;75;21029;-85
2021/10/17 05:35:03;;;;;;;25.45;15.95;;;;;;;3.51;94.11;93479.48;1781921;77;21802;-85
2021/10/17 05:37:30;;;;;;;24.87;14.75;;;;;;;3.45;94.24;93478.17;1829516;75;21045;-86
2021/10/17 05:39:58;;;;;;;21.23;13.55;;;;;;;3.38;94.24;93484.16;1817801;75;21034;-85
2021/10/17 05:42:24;;;;;;;27.10;14.40;;;;;;;3.30;94.58;93487.23;1798987;75;22090;-86
2021/10/17 05:44:54;;;;;;;22.35;14.73;;;;;;;3.23;94.91;93481.69;1828980;77;21048;-84
2021/10/17 05:47:22;;;;;;;24.63;14.90;;;;;;;3.24;95.27;93481.15;1824349;77;21170;-84
2021/10/17 05:49:48;;;;;;;23.65;13.15;;;;;;;3.23;95.44;93483.03;1803298;77;21089;-87
2021/10/17 05:52:15;;;;;;;19.98;12.10;;;;;;;3.24;95.20;93483.27;1777387;77;21120;-86
2021/10/17 05:54:41;;;;;;;24.30;14.47;;;;;;;3.24;95.20;93483.27;1843511;75;21053;-85
2021/10/17 05:57:08;;;;;;;16.17;11.93;;;;;;;3.25;95.56;93489.42;1830782;75;21057;-85
2021/10/17 05:59:36;;;;;;;20.43;12.18;;;;;;;3.26;95.57;93490.41;1813402;76;22165;-85
2021/10/17 06:02:03;;;;;;;19.80;11.57;;;;;;;3.25;95.61;93495.57;1790648;77;21515;-87
2021/10/17 06:04:32;;;;;;;20.70;12.60;;;;;;;3.24;95.82;93494.02;1824376;75;21101;-86
2021/10/17 06:07:06;;;;;;;22.00;12.65;;;;;;;3.22;95.94;93490.88;1816727;76;21061;-86
2021/10/17 06:09:35;;;;;;;24.35;12.43;;;;;;;3.25;95.97;93490.77;1828996;75;21010;-87
2021/10/17 06:12:02;;;;;;;17.92;11.90;;;;;;;3.26;96.11;93489.63;1811292;77;21106;-87
2021/10/17 06:14:30;;;;;;;22.48;12.82;;;;;;;3.41;96.23;93491.53;1802676;77;21203;-85
2021/10/17 06:16:57;;;;;;;22.60;11.97;;;;;;;3.52;96.33;93488.53;1829932;75;22162;-86
2021/10/17 06:19:24;;;;;;;20.92;11.80;;;;;;;3.52;96.33;93488.53;1814263;75;21631;-85
2021/10/17 06:21:52;;;;;;;17.00;11.03;;;;;;;3.58;95.25;93487.15;1805664;77;21075;-85
2021/10/17 06:24:19;;;;;;;16.70;10.53;;;;;;;3.58;95.25;93487.15;1810700;77;21109;-86
2021/10/17 06:26:45;;;;;;;20.92;11.12;;;;;;;3.63;95.29;93492.81;1826697;75;21060;-87
2021/10/17 06:29:13;;;;;;;15.88;9.68;;;;;;;3.65;94.61;93494.04;1840755;75;21021;-85
2021/10/17 06:31:40;;;;;;;24.60;11.88;;;;;;;3.68;93.91;93493.11;1798080;77;21069;-86
2021/10/17 06:34:07;;;;;;;17.00;10.70;;;;;;;3.71;93.93;93490.50;1794126;77;21061;-87
2021/10/17 06:36:36;;;;;;;18.02;11.22;;;;;;;3.79;93.67;93495.48;1742023;78;21218;-83
2021/10/17 06:39:03;;;;;;;17.12;11.10;;;;;;;3.83;93.16;93490.39;1767332;78;21140;-83
2021/10/17 06:41:30;;;;;;;17.15;10.40;;;;;;;3.92;93.45;93492.13;1806000;77;21057;-86
2021/10/17 06:43:59;;;;;;;22.02;13.60;;;;;;;4.02;93.26;93491.56;1769504;79;21611;-87
2021/10/17 06:46:29;;;;;;;54.53;34.13;;;;;;;4.11;92.91;93486.20;1813276;77;21056;-85
2021/10/17 06:48:58;;;;;;;59.75;35.00;;;;;;;4.17;92.50;93483.23;1806748;76;21757;-86
2021/10/17 06:51:24;;;;;;;44.55;26.65;;;;;;;4.25;92.33;93493.00;1785684;78;21097;-85
2021/10/17 06:53:51;;;;;;;25.02;15.28;;;;;;;4.28;92.31;93490.95;1715908;79;21109;-86
2021/10/17 06:56:19;;;;;;;15.90;10.35;;;;;;;4.32;92.23;93496.62;1757469;79;21081;-87
2021/10/17 06:58:47;;;;;;;16.30;10.58;;;;;;;4.44;91.59;93492.23;1818969;75;21057;-85
2021/10/17 07:01:17;;;;;;;16.05;8.20;;;;;;;4.49;90.82;93490.63;1828102;75;21126;-86
2021/10/17 07:03:45;;;;;;;13.20;7.53;;;;;;;4.51;89.88;93488.34;1826445;75;21107;-86
2021/10/17 07:06:14;;;;;;;15.30;9.75;;;;;;;4.55;88.87;93490.53;1823221;75;21296;-86
2021/10/17 07:08:44;;;;;;;20.50;8.60;;;;;;;4.55;88.31;93483.27;1782352;78;21078;-84
2021/10/17 07:11:13;;;;;;;16.95;9.20;;;;;;;4.57;88.06;93481.55;1751648;78;21969;-85
2021/10/17 07:13:54;;;;;;;16.35;9.35;;;;;;;4.62;88.05;93487.98;1804890;77;21156;-85
2021/10/17 07:16:29;;;;;;;18.50;10.58;;;;;;;4.63;87.66;93484.95;1746186;78;21797;-84
2021/10/17 07:18:57;;;;;;;18.92;9.85;;;;;;;4.66;87.61;93490.75;1769835;78;21695;-86
2021/10/17 07:21:23;;;;;;;20.43;11.22;;;;;;;4.67;87.01;93493.67;1761589;78;21102;-84
2021/10/17 07:23:54;;;;;;;14.87;10.03;;;;;;;4.70;86.75;93491.05;1806991;77;21194;-85
2021/10/17 07:26:30;;;;;;;20.77;10.00;;;;;;;4.77;86.67;93499.24;1780910;77;21539;-87
2021/10/17 07:28:57;;;;;;;19.80;11.57;;;;;;;4.82;86.36;93493.58;1820265;77;21081;-88
2021/10/17 07:31:25;;;;;;;20.95;11.28;;;;;;;4.89;86.06;93496.98;1823252;75;21017;-85
2021/10/17 07:34:01;;;;;;;16.25;10.32;;;;;;;4.93;85.83;93493.78;1813388;77;21086;-83
2021/10/17 07:36:30;;;;;;;17.00;10.20;;;;;;;4.98;85.72;93494.05;1804996;77;21054;-85
2021/10/17 07:38:59;;;;;;;12.85;8.08;;;;;;;5.03;85.71;93496.45;1804963;76;21145;-83
2021/10/17 07:41:26;;;;;;;16.07;8.05;;;;;;;5.05;85.23;93496.31;1808793;76;21647;-86
2021/10/17 07:43:54;;;;;;;15.32;8.08;;;;;;;5.06;84.93;93496.52;1801128;77;21069;-85
2021/10/17 07:46:21;;;;;;;13.83;8.03;;;;;;;5.08;84.62;93496.95;1797181;77;21132;-85
2021/10/17 07:48:56;;;;;;;14.00;7.60;;;;;;;5.09;84.71;93494.45;1813191;76;21035;-85
2021/10/17 07:51:21;;;;;;;15.20;8.25;;;;;;;5.13;84.67;93500.48;1747270;79;21112;-85
2021/10/17 07:53:52;;;;;;;14.50;8.40;;;;;;;5.17;84.32;93500.75;1808368;76;21128;-85
2021/10/17 07:56:19;;;;;;;15.28;8.68;;;;;;;5.25;84.05;93497.61;1716171;80;21113;-85
2021/10/17 07:58:46;;;;;;;14.63;7.65;;;;;;;5.28;83.75;93496.32;1731489;78;21065;-86
2021/10/17 08:01:14;;;;;;;22.40;8.13;;;;;;;5.28;83.50;93500.94;1758842;77;21226;-85
2021/10/17 08:04:01;;;;;;;14.98;8.03;;;;;;;5.28;83.71;93496.32;1727528;78;21058;-86
2021/10/17 08:06:38;;;;;;;12.33;7.70;;;;;;;5.32;83.70;93501.20;1742187;79;21591;-86
2021/10/17 08:09:05;;;;;;;12.95;8.05;;;;;;;5.33;83.51;93497.36;1771824;79;21037;-86
2021/10/17 08:11:32;;;;;;;11.90;6.90;;;;;;;5.39;83.41;93491.69;1745622;78;21098;-86
2021/10/17 08:14:01;;;;;;;12.28;7.58;;;;;;;5.44;83.36;93495.42;1748575;78;21073;-87
2021/10/17 08:16:29;;;;;;;22.00;10.58;;;;;;;5.49;82.58;93493.22;1826841;77;21126;-85
2021/10/17 08:18:58;;;;;;;21.30;10.03;;;;;;;5.55;82.45;93491.75;1799180;77;20999;-87
2021/10/17 08:21:25;;;;;;;16.35;8.95;;;;;;;5.61;82.34;93482.80;1763930;78;21073;-87
2021/10/17 08:23:54;;;;;;;17.20;10.98;;;;;;;5.68;81.58;93486.16;1766955;78;21479;-87
2021/10/17 08:26:21;;;;;;;14.50;9.13;;;;;;;5.72;81.65;93478.92;1771263;79;21046;-85
2021/10/17 08:28:48;;;;;;;14.87;8.88;;;;;;;5.80;81.80;93482.70;1768247;79;21759;-86
2021/10/17 08:31:16;;;;;;;11.88;7.67;;;;;;;5.84;80.89;93488.16;1777204;78;21705;-87
2021/10/17 08:33:43;;;;;;;13.08;8.75;;;;;;;5.86;81.38;93485.86;1808390;77;21515;-85
2021/10/17 08:36:09;;;;;;;12.15;8.10;;;;;;;5.96;81.16;93484.50;1820599;77;21106;-86
2021/10/17 08:38:36;;;;;;;13.88;7.35;;;;;;;6.04;80.76;93478.05;1816149;76;22066;-86
2021/10/17 08:41:06;;;;;;;12.47;7.05;;;;;;;6.13;81.30;93469.68;1792091;77;21508;-85
2021/10/17 08:43:40;;;;;;;12.68;8.10;;;;;;;6.25;81.03;93480.28;1764711;78;21023;-85
2021/10/17 08:46:11;;;;;;;14.47;9.20;;;;;;;6.39;80.34;93481.02;1800021;78;21079;-85
2021/10/17 08:48:39;;;;;;;14.10;8.60;;;;;;;6.52;79.99;93474.25;1857762;76;21237;-86
2021/10/17 08:51:06;;;;;;;12.90;7.40;;;;;;;6.69;79.78;93471.53;1851317;76;21741;-85
2021/10/17 08:53:47;;;;;;;11.05;7.60;;;;;;;6.82;78.89;93468.80;1824562;76;21096;-85
2021/10/17 08:56:15;;;;;;;14.07;8.23;;;;;;;6.91;77.67;93470.63;1775221;77;21677;-85
2021/10/17 08:58:44;;;;;;;10.45;6.95;;;;;;;6.95;77.35;93467.96;1780556;77;21065;-86
2021/10/17 09:01:16;;;;;;;13.08;7.95;;;;;;;7.04;78.04;93464.40;1816433;76;21050;-85
2021/10/17 09:03:53;;;;;;;10.65;7.85;;;;;;;7.23;78.23;93463.42;1808921;77;21635;-86
2021/10/17 09:06:25;;;;;;;12.93;8.05;;;;;;;7.45;76.54;93465.17;1768211;78;22070;-86
2021/10/17 09:09:18;;;;;;;12.43;7.08;;;;;;;7.64;76.50;93461.45;1807710;77;21022;-87
2021/10/17 09:11:50;;;;;;;11.10;6.85;;;;;;;7.86;74.94;93461.04;1812403;75;21103;-84
2021/10/17 09:14:18;;;;;;;10.28;7.37;;;;;;;8.03;74.02;93460.36;1835080;75;21061;-87
2021/10/17 09:16:47;;;;;;;12.98;6.90;;;;;;;8.14;73.65;93457.72;1829021;75;21133;-85
2021/10/17 09:19:24;;;;;;;10.98;7.92;;;;;;;8.25;72.88;93454.50;1802926;77;21122;-87
2021/10/17 09:22:01;;;;;;;11.38;8.55;;;;;;;8.23;71.79;93451.38;1818997;76;21032;-85
2021/10/17 09:24:41;;;;;;;12.45;8.15;;;;;;;8.25;72.13;93455.84;1801661;76;21077;-87
2021/10/17 09:27:21;;;;;;;12.65;7.78;;;;;;;8.32;72.30;93448.92;1809143;77;21038;-85
2021/10/17 09:29:54;;;;;;;13.98;8.05;;;;;;;8.40;72.08;93447.25;1816472;77;21112;-86
2021/10/17 09:32:25;;;;;;;11.00;7.80;;;;;;;8.47;71.35;93446.51;1784136;78;21132;-86
2021/10/17 09:34:58;;;;;;;11.78;8.50;;;;;;;8.55;71.49;93444.61;1781260;77;21140;-87
2021/10/17 09:40:23;;;;;;;19.37;11.88;;;;;;;8.81;71.68;93429.98;1741829;79;21071;-86
2021/10/17 09:43:14;;;;;;;15.40;9.18;;;;;;;8.99;70.80;93429.45;1797501;77;20982;-88
2021/10/17 09:46:13;;;;;;;14.53;9.15;;;;;;;9.12;70.81;93429.27;1799436;77;22811;-87
2021/10/17 09:48:41;;;;;;;12.55;8.53;;;;;;;9.25;70.01;93422.87;1785497;77;21057;-85
2021/10/17 09:51:13;;;;;;;14.53;7.95;;;;;;;9.35;68.82;93418.05;1832196;75;21033;-85
2021/10/17 09:53:54;;;;;;;11.68;8.50;;;;;;;9.41;68.62;93415.16;1817118;75;21038;-85
2021/10/17 09:56:39;;;;;;;12.40;8.35;;;;;;;9.50;68.78;93413.41;1773251;78;21107;-86
2021/10/17 09:59:10;;;;;;;11.70;7.65;;;;;;;9.60;68.62;93410.50;1824185;76;21073;-86
2021/10/17 10:01:39;;;;;;;12.90;7.92;;;;;;;9.70;67.70;93410.50;1825727;76;21050;-87
2021/10/17 10:04:08;;;;;;;16.42;9.45;;;;;;;9.73;67.53;93407.57;1769146;79;21048;-86
2021/10/17 10:06:36;;;;;;;11.30;8.45;;;;;;;9.75;67.52;93402.53;1728878;80;21161;-86
2021/10/17 10:09:06;;;;;;;15.68;8.93;;;;;;;9.79;67.18;93397.11;1762506;79;21093;-84
2021/10/17 10:11:33;;;;;;;10.00;7.42;;;;;;;9.77;66.83;93396.12;1812191;76;21508;-85
2021/10/17 10:14:03;;;;;;;12.43;7.70;;;;;;;9.77;66.34;93393.41;1853443;75;21010;-85
2021/10/17 10:16:32;;;;;;;10.55;7.40;;;;;;;9.78;66.08;93390.10;1798143;77;21116;-84
2021/10/17 10:19:08;;;;;;;11.00;7.12;;;;;;;9.78;65.91;93384.67;1826062;77;21662;-85
2021/10/17 10:21:37;;;;;;;11.50;8.15;;;;;;;9.83;65.52;93389.72;1792206;77;21078;-84
2021/10/17 10:24:10;;;;;;;10.68;8.10;;;;;;;9.86;65.55;93388.95;1794207;78;21125;-83
2021/10/17 10:26:37;;;;;;;11.63;8.48;;;;;;;9.84;65.71;93385.84;1809408;78;21639;-84
2021/10/17 10:29:03;;;;;;;11.30;7.22;;;;;;;9.83;65.10;93382.94;1818929;77;21011;-85
2021/10/17 10:31:47;;;;;;;11.05;7.03;;;;;;;9.84;65.42;93377.10;1819022;77;21607;-84
2021/10/17 10:34:38;;;;;;;12.50;7.53;;;;;;;9.88;65.37;93383.30;1823582;77;22255;-85
2021/10/17 10:37:26;;;;;;;11.03;8.23;;;;;;;9.89;65.69;93382.71;1820225;77;21085;-85
2021/10/17 10:40:07;;;;;;;11.53;7.53;;;;;;;9.94;65.89;93380.39;1782472;78;21073;-84
2021/10/17 10:42:46;;;;;;;13.03;8.45;;;;;;;10.01;64.87;93367.97;1765696;79;21102;-84
2021/10/17 10:45:32;;;;;;;8.68;6.37;;;;;;;10.05;64.71;93368.14;1782060;77;21095;-85
2021/10/17 10:48:15;;;;;;;11.55;7.55;;;;;;;10.08;64.33;93360.57;1768495;79;21093;-82
2021/10/17 10:50:45;;;;;;;9.18;7.08;;;;;;;10.12;64.37;93363.28;1793992;78;21258;-84
2021/10/17 10:53:12;;;;;;;11.88;6.83;;;;;;;10.14;64.66;93367.72;1782661;78;21078;-84
2021/10/17 10:55:49;;;;;;;7.83;6.35;;;;;;;10.17;63.65;93362.86;1789042;77;21022;-86
2021/10/17 10:58:27;;;;;;;11.03;6.80;;;;;;;10.23;64.00;93368.09;1752243;79;21558;-87
2021/10/17 11:00:56;;;;;;;11.22;7.30;;;;;;;10.29;63.56;93362.45;1811970;77;21029;-86
2021/10/17 11:03:25;;;;;;;9.85;6.37;;;;;;;10.33;62.84;93362.44;1806194;76;21057;-84
2021/10/17 11:06:12;;;;;;;8.73;6.42;;;;;;;10.32;63.54;93356.82;1776033;79;21038;-86
2021/10/17 11:08:42;;;;;;;10.75;6.17;;;;;;;10.31;63.51;93356.64;1771204;78;21443;-84
2021/10/17 11:11:09;;;;;;;8.38;5.85;;;;;;;10.33;63.32;93346.91;1768040;78;21611;-84
2021/10/17 11:13:41;;;;;;;8.78;5.80;;;;;;;10.39;62.78;93339.13;1809967;76;21013;-84
2021/10/17 11:16:11;;;;;;;9.65;6.22;;;;;;;10.44;62.68;93346.86;1778254;78;21918;-83
2021/10/17 11:18:41;;;;;;;8.95;6.80;;;;;;;10.48;62.85;93343.54;1804168;77;21061;-85
2021/10/17 11:21:08;;;;;;;6.92;5.37;;;;;;;10.50;62.94;93343.16;1810182;75;21065;-83
2021/10/17 11:23:39;;;;;;;7.45;6.17;;;;;;;10.54;62.89;93339.84;1775093;78;21104;-83
2021/10/17 11:26:10;;;;;;;8.93;5.40;;;;;;;10.61;62.53;93338.44;1792799;78;21040;-85
2021/10/17 11:28:44;;;;;;;8.08;5.33;;;;;;;10.68;62.53;93336.45;1766223;79;21249;-85
2021/10/17 11:31:14;;;;;;;8.43;5.83;;;;;;;10.77;62.20;93336.01;1766973;79;21478;-84
2021/10/17 11:33:43;;;;;;;9.33;5.75;;;;;;;10.81;62.22;93335.40;1760742;78;21062;-85
2021/10/17 11:36:12;;;;;;;7.33;5.08;;;;;;;10.86;61.71;93336.91;1765112;78;21045;-84
2021/10/17 11:38:40;;;;;;;6.85;5.25;;;;;;;10.88;61.89;93334.59;1764518;78;21105;-85
2021/10/17 11:41:12;;;;;;;6.87;5.08;;;;;;;10.88;61.28;93328.55;1813270;76;21845;-83
2021/10/17 11:43:42;;;;;;;8.18;5.72;;;;;;;10.93;61.67;93327.35;1775611;78;21176;-84